sensor_id;sensor_type;location;lat;lon;timestamp;temperature;humidity
5868;DHT22;2960;49.142;7.768;2023-04-24T00:01:49;13.60;63.60
5868;DHT22;2960;49.142;7.768;2023-04-24T00:04:17;13.60;63.70
5868;DHT22;2960;49.142;7.768;2023-04-24T00:06:44;13.60;64.40
5868;DHT22;2960;49.142;7.768;2023-04-24T00:09:15;13.60;63.70
5868;DHT22;2960;49.142;7.768;2023-04-24T00:11:43;13.60;63.70
5868;DHT22;2960;49.142;7.768;2023-04-24T00:14:10;13.60;63.60
5868;DHT22;2960;49.142;7.768;2023-04-24T00:16:37;13.60;63.70
5868;DHT22;2960;49.142;7.768;2023-04-24T00:19:05;13.60;63.70
5868;DHT22;2960;49.142;7.768;2023-04-24T00:21:32;13.60;63.80
5868;DHT22;2960;49.142;7.768;2023-04-24T00:23:59;13.60;63.80
5868;DHT22;2960;49.142;7.768;2023-04-24T00:26:26;13.60;63.80
5868;DHT22;2960;49.142;7.768;2023-04-24T00:28:55;13.60;63.90
5868;DHT22;2960;49.142;7.768;2023-04-24T00:31:22;13.60;63.90
5868;DHT22;2960;49.142;7.768;2023-04-24T00:33:49;13.60;63.90
5868;DHT22;2960;49.142;7.768;2023-04-24T00:36:16;13.60;64.00
5868;DHT22;2960;49.142;7.768;2023-04-24T00:38:45;13.50;63.90
5868;DHT22;2960;49.142;7.768;2023-04-24T00:41:12;13.50;63.90
5868;DHT22;2960;49.142;7.768;2023-04-24T00:43:39;13.50;64.10
5868;DHT22;2960;49.142;7.768;2023-04-24T00:46:08;13.50;64.20
5868;DHT22;2960;49.142;7.768;2023-04-24T00:48:37;13.50;64.30
5868;DHT22;2960;49.142;7.768;2023-04-24T00:51:05;13.50;64.30
5868;DHT22;2960;49.142;7.768;2023-04-24T00:53:32;13.50;64.40
5868;DHT22;2960;49.142;7.768;2023-04-24T00:56:00;13.40;64.30
5868;DHT22;2960;49.142;7.768;2023-04-24T00:58:28;13.40;64.40
5868;DHT22;2960;49.142;7.768;2023-04-24T01:00:56;13.40;64.40
5868;DHT22;2960;49.142;7.768;2023-04-24T01:03:28;13.50;64.50
5868;DHT22;2960;49.142;7.768;2023-04-24T01:05:57;13.50;64.50
5868;DHT22;2960;49.142;7.768;2023-04-24T01:08:26;13.50;64.50
5868;DHT22;2960;49.142;7.768;2023-04-24T01:10:55;13.50;64.60
5868;DHT22;2960;49.142;7.768;2023-04-24T01:13:24;13.50;64.60
5868;DHT22;2960;49.142;7.768;2023-04-24T01:15:51;13.50;64.70
5868;DHT22;2960;49.142;7.768;2023-04-24T01:18:18;13.50;64.70
5868;DHT22;2960;49.142;7.768;2023-04-24T01:20:51;13.50;64.80
5868;DHT22;2960;49.142;7.768;2023-04-24T01:23:22;13.50;64.80
5868;DHT22;2960;49.142;7.768;2023-04-24T01:25:49;13.50;64.80
5868;DHT22;2960;49.142;7.768;2023-04-24T01:28:17;13.50;64.80
5868;DHT22;2960;49.142;7.768;2023-04-24T01:30:44;13.50;64.80
5868;DHT22;2960;49.142;7.768;2023-04-24T01:33:14;13.50;64.90
5868;DHT22;2960;49.142;7.768;2023-04-24T01:35:41;13.50;65.10
5868;DHT22;2960;49.142;7.768;2023-04-24T01:38:09;13.40;65.00
5868;DHT22;2960;49.142;7.768;2023-04-24T01:40:37;13.40;65.10
5868;DHT22;2960;49.142;7.768;2023-04-24T01:43:05;13.40;65.10
5868;DHT22;2960;49.142;7.768;2023-04-24T01:45:32;13.40;65.10
5868;DHT22;2960;49.142;7.768;2023-04-24T01:48:00;13.40;65.20
5868;DHT22;2960;49.142;7.768;2023-04-24T01:50:27;13.40;65.20
5868;DHT22;2960;49.142;7.768;2023-04-24T01:52:54;13.40;65.20
5868;DHT22;2960;49.142;7.768;2023-04-24T01:55:22;13.40;65.20
5868;DHT22;2960;49.142;7.768;2023-04-24T01:57:52;13.40;65.20
5868;DHT22;2960;49.142;7.768;2023-04-24T02:00:23;13.40;65.70
5868;DHT22;2960;49.142;7.768;2023-04-24T02:02:51;13.40;65.40
5868;DHT22;2960;49.142;7.768;2023-04-24T02:05:20;13.40;65.70
5868;DHT22;2960;49.142;7.768;2023-04-24T02:07:47;13.30;65.70
5868;DHT22;2960;49.142;7.768;2023-04-24T02:10:14;13.30;65.60
5868;DHT22;2960;49.142;7.768;2023-04-24T02:12:41;13.20;65.60
5868;DHT22;2960;49.142;7.768;2023-04-24T02:15:10;13.10;65.40
5868;DHT22;2960;49.142;7.768;2023-04-24T02:17:38;13.00;65.50
5868;DHT22;2960;49.142;7.768;2023-04-24T02:20:06;13.00;65.60
5868;DHT22;2960;49.142;7.768;2023-04-24T02:22:34;12.90;65.70
5868;DHT22;2960;49.142;7.768;2023-04-24T02:25:01;12.80;65.60
5868;DHT22;2960;49.142;7.768;2023-04-24T02:27:29;12.70;65.70
5868;DHT22;2960;49.142;7.768;2023-04-24T02:29:56;12.70;65.90
5868;DHT22;2960;49.142;7.768;2023-04-24T02:32:24;12.60;65.90
5868;DHT22;2960;49.142;7.768;2023-04-24T02:34:51;12.60;66.00
5868;DHT22;2960;49.142;7.768;2023-04-24T02:37:18;12.50;66.00
5868;DHT22;2960;49.142;7.768;2023-04-24T02:39:45;12.50;66.10
5868;DHT22;2960;49.142;7.768;2023-04-24T02:42:12;12.50;66.20
5868;DHT22;2960;49.142;7.768;2023-04-24T02:44:40;12.50;67.00
5868;DHT22;2960;49.142;7.768;2023-04-24T02:47:08;12.40;66.20
5868;DHT22;2960;49.142;7.768;2023-04-24T02:49:36;12.40;66.20
5868;DHT22;2960;49.142;7.768;2023-04-24T02:52:03;12.50;66.30
5868;DHT22;2960;49.142;7.768;2023-04-24T02:54:30;12.50;66.20
5868;DHT22;2960;49.142;7.768;2023-04-24T02:56:58;12.50;66.20
5868;DHT22;2960;49.142;7.768;2023-04-24T02:59:26;12.50;66.10
5868;DHT22;2960;49.142;7.768;2023-04-24T03:01:54;12.50;66.10
5868;DHT22;2960;49.142;7.768;2023-04-24T03:04:21;12.60;66.30
5868;DHT22;2960;49.142;7.768;2023-04-24T03:06:50;12.60;66.20
5868;DHT22;2960;49.142;7.768;2023-04-24T03:09:18;12.60;66.20
5868;DHT22;2960;49.142;7.768;2023-04-24T03:11:45;12.60;66.20
5868;DHT22;2960;49.142;7.768;2023-04-24T03:14:14;12.50;66.10
5868;DHT22;2960;49.142;7.768;2023-04-24T03:16:41;12.50;66.10
5868;DHT22;2960;49.142;7.768;2023-04-24T03:19:08;12.50;66.10
5868;DHT22;2960;49.142;7.768;2023-04-24T03:21:35;12.40;66.10
5868;DHT22;2960;49.142;7.768;2023-04-24T03:24:07;12.40;66.90
5868;DHT22;2960;49.142;7.768;2023-04-24T03:26:35;12.30;66.10
5868;DHT22;2960;49.142;7.768;2023-04-24T03:29:02;12.30;66.10
5868;DHT22;2960;49.142;7.768;2023-04-24T03:31:29;12.30;66.00
5868;DHT22;2960;49.142;7.768;2023-04-24T03:33:56;12.20;66.80
5868;DHT22;2960;49.142;7.768;2023-04-24T03:36:23;12.20;66.80
5868;DHT22;2960;49.142;7.768;2023-04-24T03:38:51;12.10;66.00
5868;DHT22;2960;49.142;7.768;2023-04-24T03:41:20;12.10;65.90
5868;DHT22;2960;49.142;7.768;2023-04-24T03:43:48;12.00;65.80
5868;DHT22;2960;49.142;7.768;2023-04-24T03:46:15;12.00;65.80
5868;DHT22;2960;49.142;7.768;2023-04-24T03:48:42;12.00;65.90
5868;DHT22;2960;49.142;7.768;2023-04-24T03:51:09;12.00;65.90
5868;DHT22;2960;49.142;7.768;2023-04-24T03:53:36;12.00;66.00
5868;DHT22;2960;49.142;7.768;2023-04-24T03:56:03;11.90;65.80
5868;DHT22;2960;49.142;7.768;2023-04-24T03:58:32;11.90;65.90
5868;DHT22;2960;49.142;7.768;2023-04-24T04:00:59;11.90;65.90
5868;DHT22;2960;49.142;7.768;2023-04-24T04:03:26;12.00;66.00
5868;DHT22;2960;49.142;7.768;2023-04-24T04:05:53;12.00;65.90
5868;DHT22;2960;49.142;7.768;2023-04-24T04:08:20;12.00;65.90
5868;DHT22;2960;49.142;7.768;2023-04-24T04:10:47;12.00;65.80
5868;DHT22;2960;49.142;7.768;2023-04-24T04:13:14;12.00;65.80
5868;DHT22;2960;49.142;7.768;2023-04-24T04:15:43;12.00;65.80
5868;DHT22;2960;49.142;7.768;2023-04-24T04:18:10;12.00;65.80
5868;DHT22;2960;49.142;7.768;2023-04-24T04:20:37;12.00;65.80
5868;DHT22;2960;49.142;7.768;2023-04-24T04:23:07;12.10;65.90
5868;DHT22;2960;49.142;7.768;2023-04-24T04:25:34;12.00;65.80
5868;DHT22;2960;49.142;7.768;2023-04-24T04:28:01;12.10;66.80
5868;DHT22;2960;49.142;7.768;2023-04-24T04:30:28;12.10;66.00
5868;DHT22;2960;49.142;7.768;2023-04-24T04:32:59;12.10;66.80
5868;DHT22;2960;49.142;7.768;2023-04-24T04:35:26;12.10;66.10
5868;DHT22;2960;49.142;7.768;2023-04-24T04:37:54;12.10;66.10
5868;DHT22;2960;49.142;7.768;2023-04-24T04:40:21;12.10;66.10
5868;DHT22;2960;49.142;7.768;2023-04-24T04:42:51;12.10;66.10
5868;DHT22;2960;49.142;7.768;2023-04-24T04:45:19;12.10;66.10
5868;DHT22;2960;49.142;7.768;2023-04-24T04:47:47;12.00;66.00
5868;DHT22;2960;49.142;7.768;2023-04-24T04:50:15;12.00;66.00
5868;DHT22;2960;49.142;7.768;2023-04-24T04:52:44;12.00;66.00
5868;DHT22;2960;49.142;7.768;2023-04-24T04:55:11;12.00;66.00
5868;DHT22;2960;49.142;7.768;2023-04-24T04:57:39;12.00;66.10
5868;DHT22;2960;49.142;7.768;2023-04-24T05:00:07;12.00;66.10
5868;DHT22;2960;49.142;7.768;2023-04-24T05:02:37;12.00;66.10
5868;DHT22;2960;49.142;7.768;2023-04-24T05:05:05;12.00;66.10
5868;DHT22;2960;49.142;7.768;2023-04-24T05:07:34;12.00;66.10
5868;DHT22;2960;49.142;7.768;2023-04-24T05:10:02;12.00;66.10
5868;DHT22;2960;49.142;7.768;2023-04-24T05:12:29;12.00;66.10
5868;DHT22;2960;49.142;7.768;2023-04-24T05:14:56;12.00;66.10
5868;DHT22;2960;49.142;7.768;2023-04-24T05:17:24;12.00;66.20
5868;DHT22;2960;49.142;7.768;2023-04-24T05:19:51;12.00;66.20
5868;DHT22;2960;49.142;7.768;2023-04-24T05:22:18;12.00;66.20
5868;DHT22;2960;49.142;7.768;2023-04-24T05:24:48;12.00;66.30
5868;DHT22;2960;49.142;7.768;2023-04-24T05:27:15;11.90;66.10
5868;DHT22;2960;49.142;7.768;2023-04-24T05:29:42;11.90;66.20
5868;DHT22;2960;49.142;7.768;2023-04-24T05:32:09;11.90;66.30
5868;DHT22;2960;49.142;7.768;2023-04-24T05:34:37;11.90;66.40
5868;DHT22;2960;49.142;7.768;2023-04-24T05:37:04;11.90;66.40
5868;DHT22;2960;49.142;7.768;2023-04-24T05:39:33;11.80;66.70
5868;DHT22;2960;49.142;7.768;2023-04-24T05:42:03;11.80;66.40
5868;DHT22;2960;49.142;7.768;2023-04-24T05:44:30;11.80;66.90
5868;DHT22;2960;49.142;7.768;2023-04-24T05:46:58;11.80;66.60
5868;DHT22;2960;49.142;7.768;2023-04-24T05:49:25;11.80;66.70
5868;DHT22;2960;49.142;7.768;2023-04-24T05:51:52;11.80;66.60
5868;DHT22;2960;49.142;7.768;2023-04-24T05:54:19;11.80;66.60
5868;DHT22;2960;49.142;7.768;2023-04-24T05:56:46;11.80;66.50
5868;DHT22;2960;49.142;7.768;2023-04-24T05:59:15;11.80;66.40
5868;DHT22;2960;49.142;7.768;2023-04-24T06:01:42;11.80;66.40
5868;DHT22;2960;49.142;7.768;2023-04-24T06:04:10;11.80;66.30
5868;DHT22;2960;49.142;7.768;2023-04-24T06:06:37;11.80;66.30
5868;DHT22;2960;49.142;7.768;2023-04-24T06:09:05;11.80;66.20
5868;DHT22;2960;49.142;7.768;2023-04-24T06:11:32;11.70;66.10
5868;DHT22;2960;49.142;7.768;2023-04-24T06:13:59;11.70;66.00
5868;DHT22;2960;49.142;7.768;2023-04-24T06:16:29;11.70;66.00
5868;DHT22;2960;49.142;7.768;2023-04-24T06:18:57;11.60;65.90
5868;DHT22;2960;49.142;7.768;2023-04-24T06:21:24;11.60;65.80
5868;DHT22;2960;49.142;7.768;2023-04-24T06:23:51;11.50;65.40
5868;DHT22;2960;49.142;7.768;2023-04-24T06:26:18;11.40;65.50
5868;DHT22;2960;49.142;7.768;2023-04-24T06:28:46;11.30;65.80
5868;DHT22;2960;49.142;7.768;2023-04-24T06:31:13;11.20;66.00
5868;DHT22;2960;49.142;7.768;2023-04-24T06:33:42;11.20;66.10
5868;DHT22;2960;49.142;7.768;2023-04-24T06:36:09;11.20;67.10
5868;DHT22;2960;49.142;7.768;2023-04-24T06:38:36;11.10;66.30
5868;DHT22;2960;49.142;7.768;2023-04-24T06:41:03;11.10;66.40
5868;DHT22;2960;49.142;7.768;2023-04-24T06:43:31;11.10;66.60
5868;DHT22;2960;49.142;7.768;2023-04-24T06:45:58;11.10;66.70
5868;DHT22;2960;49.142;7.768;2023-04-24T06:48:26;11.10;66.70
5868;DHT22;2960;49.142;7.768;2023-04-24T06:50:54;11.10;66.60
5868;DHT22;2960;49.142;7.768;2023-04-24T06:53:21;11.10;66.70
5868;DHT22;2960;49.142;7.768;2023-04-24T06:55:48;11.10;66.80
5868;DHT22;2960;49.142;7.768;2023-04-24T06:58:16;11.10;66.80
5868;DHT22;2960;49.142;7.768;2023-04-24T07:00:43;11.20;67.00
5868;DHT22;2960;49.142;7.768;2023-04-24T07:03:11;11.20;66.90
5868;DHT22;2960;49.142;7.768;2023-04-24T07:05:38;11.20;67.00
5868;DHT22;2960;49.142;7.768;2023-04-24T07:08:06;11.20;67.00
5868;DHT22;2960;49.142;7.768;2023-04-24T07:10:36;11.30;67.20
5868;DHT22;2960;49.142;7.768;2023-04-24T07:13:04;11.30;67.40
5868;DHT22;2960;49.142;7.768;2023-04-24T07:15:32;11.40;67.40
5868;DHT22;2960;49.142;7.768;2023-04-24T07:17:59;11.40;67.30
5868;DHT22;2960;49.142;7.768;2023-04-24T07:20:27;11.40;67.30
5868;DHT22;2960;49.142;7.768;2023-04-24T07:22:54;11.40;67.20
5868;DHT22;2960;49.142;7.768;2023-04-24T07:25:23;11.40;67.10
5868;DHT22;2960;49.142;7.768;2023-04-24T07:27:50;11.40;67.20
5868;DHT22;2960;49.142;7.768;2023-04-24T07:30:20;11.40;67.30
5868;DHT22;2960;49.142;7.768;2023-04-24T07:32:47;11.40;67.20
5868;DHT22;2960;49.142;7.768;2023-04-24T07:35:14;11.40;67.20
5868;DHT22;2960;49.142;7.768;2023-04-24T07:37:41;11.40;67.20
5868;DHT22;2960;49.142;7.768;2023-04-24T07:40:11;11.40;67.20
5868;DHT22;2960;49.142;7.768;2023-04-24T07:42:40;11.40;67.20
5868;DHT22;2960;49.142;7.768;2023-04-24T07:45:09;11.40;67.20
5868;DHT22;2960;49.142;7.768;2023-04-24T07:47:36;11.40;67.10
5868;DHT22;2960;49.142;7.768;2023-04-24T07:50:06;11.40;67.00
5868;DHT22;2960;49.142;7.768;2023-04-24T07:52:33;11.50;67.00
5868;DHT22;2960;49.142;7.768;2023-04-24T07:55:00;11.50;66.80
5868;DHT22;2960;49.142;7.768;2023-04-24T07:57:28;11.50;66.70
5868;DHT22;2960;49.142;7.768;2023-04-24T07:59:56;11.50;66.50
5868;DHT22;2960;49.142;7.768;2023-04-24T08:02:23;11.50;66.40
5868;DHT22;2960;49.142;7.768;2023-04-24T08:04:52;11.60;66.40
5868;DHT22;2960;49.142;7.768;2023-04-24T08:07:20;11.70;66.60
5868;DHT22;2960;49.142;7.768;2023-04-24T08:09:47;11.80;66.50
5868;DHT22;2960;49.142;7.768;2023-04-24T08:12:14;11.90;66.40
5868;DHT22;2960;49.142;7.768;2023-04-24T08:14:41;12.00;66.30
5868;DHT22;2960;49.142;7.768;2023-04-24T08:17:10;12.10;66.20
5868;DHT22;2960;49.142;7.768;2023-04-24T08:19:37;12.20;65.80
5868;DHT22;2960;49.142;7.768;2023-04-24T08:22:08;12.20;65.50
5868;DHT22;2960;49.142;7.768;2023-04-24T08:24:35;12.30;65.20
5868;DHT22;2960;49.142;7.768;2023-04-24T08:27:03;12.30;64.70
5868;DHT22;2960;49.142;7.768;2023-04-24T08:29:30;12.30;64.10
5868;DHT22;2960;49.142;7.768;2023-04-24T08:31:57;12.20;63.30
5868;DHT22;2960;49.142;7.768;2023-04-24T08:34:25;12.10;63.40
5868;DHT22;2960;49.142;7.768;2023-04-24T08:36:52;12.10;64.10
5868;DHT22;2960;49.142;7.768;2023-04-24T08:39:20;12.00;63.30
5868;DHT22;2960;49.142;7.768;2023-04-24T08:41:48;12.00;63.30
5868;DHT22;2960;49.142;7.768;2023-04-24T08:44:15;12.00;63.50
5868;DHT22;2960;49.142;7.768;2023-04-24T08:46:43;11.90;63.40
5868;DHT22;2960;49.142;7.768;2023-04-24T08:49:13;11.90;63.40
5868;DHT22;2960;49.142;7.768;2023-04-24T08:51:44;11.90;63.40
5868;DHT22;2960;49.142;7.768;2023-04-24T08:54:12;11.90;64.20
5868;DHT22;2960;49.142;7.768;2023-04-24T08:56:40;11.90;63.30
5868;DHT22;2960;49.142;7.768;2023-04-24T08:59:10;12.00;64.30
5868;DHT22;2960;49.142;7.768;2023-04-24T09:01:39;12.00;63.30
5868;DHT22;2960;49.142;7.768;2023-04-24T09:04:08;12.10;63.20
5868;DHT22;2960;49.142;7.768;2023-04-24T09:06:37;12.10;63.10
5868;DHT22;2960;49.142;7.768;2023-04-24T09:09:07;12.20;62.70
5868;DHT22;2960;49.142;7.768;2023-04-24T09:11:36;12.20;62.20
5868;DHT22;2960;49.142;7.768;2023-04-24T09:14:03;12.20;62.20
5868;DHT22;2960;49.142;7.768;2023-04-24T09:16:31;12.20;62.20
5868;DHT22;2960;49.142;7.768;2023-04-24T09:18:59;12.30;62.20
5868;DHT22;2960;49.142;7.768;2023-04-24T09:21:31;12.30;61.80
5868;DHT22;2960;49.142;7.768;2023-04-24T09:24:00;12.30;61.60
5868;DHT22;2960;49.142;7.768;2023-04-24T09:26:31;12.30;61.50
5868;DHT22;2960;49.142;7.768;2023-04-24T09:29:00;12.30;61.40
5868;DHT22;2960;49.142;7.768;2023-04-24T09:31:28;12.30;61.70
5868;DHT22;2960;49.142;7.768;2023-04-24T09:33:57;12.20;61.80
5868;DHT22;2960;49.142;7.768;2023-04-24T09:36:29;12.20;62.20
5868;DHT22;2960;49.142;7.768;2023-04-24T09:38:59;12.20;62.40
5868;DHT22;2960;49.142;7.768;2023-04-24T09:41:27;12.10;62.50
5868;DHT22;2960;49.142;7.768;2023-04-24T09:43:57;12.10;62.70
5868;DHT22;2960;49.142;7.768;2023-04-24T09:46:31;12.10;62.90
5868;DHT22;2960;49.142;7.768;2023-04-24T09:49:08;12.10;63.00
5868;DHT22;2960;49.142;7.768;2023-04-24T09:51:37;12.10;63.30
5868;DHT22;2960;49.142;7.768;2023-04-24T09:54:13;12.20;63.40
5868;DHT22;2960;49.142;7.768;2023-04-24T09:56:43;12.20;63.30
5868;DHT22;2960;49.142;7.768;2023-04-24T09:59:13;12.10;63.20
5868;DHT22;2960;49.142;7.768;2023-04-24T10:01:41;12.20;63.30
5868;DHT22;2960;49.142;7.768;2023-04-24T10:04:17;12.20;63.40
5868;DHT22;2960;49.142;7.768;2023-04-24T10:06:45;12.20;63.30
5868;DHT22;2960;49.142;7.768;2023-04-24T10:09:14;12.20;63.40
5868;DHT22;2960;49.142;7.768;2023-04-24T10:11:43;12.20;63.30
5868;DHT22;2960;49.142;7.768;2023-04-24T10:14:16;12.20;63.20
5868;DHT22;2960;49.142;7.768;2023-04-24T10:16:44;12.20;62.80
5868;DHT22;2960;49.142;7.768;2023-04-24T10:19:13;12.20;62.80
5868;DHT22;2960;49.142;7.768;2023-04-24T10:21:43;12.20;62.90
5868;DHT22;2960;49.142;7.768;2023-04-24T10:24:12;12.10;62.80
5868;DHT22;2960;49.142;7.768;2023-04-24T10:26:41;12.10;63.00
5868;DHT22;2960;49.142;7.768;2023-04-24T10:29:10;12.00;63.10
5868;DHT22;2960;49.142;7.768;2023-04-24T10:31:39;12.00;63.40
5868;DHT22;2960;49.142;7.768;2023-04-24T10:34:09;11.90;63.50
5868;DHT22;2960;49.142;7.768;2023-04-24T10:36:38;11.90;63.70
5868;DHT22;2960;49.142;7.768;2023-04-24T10:39:09;11.80;63.70
5868;DHT22;2960;49.142;7.768;2023-04-24T10:41:38;11.80;63.80
5868;DHT22;2960;49.142;7.768;2023-04-24T10:44:06;11.80;64.70
5868;DHT22;2960;49.142;7.768;2023-04-24T10:46:33;11.80;64.00
5868;DHT22;2960;49.142;7.768;2023-04-24T10:49:05;11.80;64.10
5868;DHT22;2960;49.142;7.768;2023-04-24T10:51:46;11.80;64.20
5868;DHT22;2960;49.142;7.768;2023-04-24T10:54:25;11.80;64.10
5868;DHT22;2960;49.142;7.768;2023-04-24T10:56:53;11.80;63.90
5868;DHT22;2960;49.142;7.768;2023-04-24T10:59:26;11.80;63.90
5868;DHT22;2960;49.142;7.768;2023-04-24T11:01:55;11.90;64.00
5868;DHT22;2960;49.142;7.768;2023-04-24T11:04:33;11.90;63.70
5868;DHT22;2960;49.142;7.768;2023-04-24T11:07:01;11.90;63.30
5868;DHT22;2960;49.142;7.768;2023-04-24T11:09:31;11.90;64.00
5868;DHT22;2960;49.142;7.768;2023-04-24T11:12:05;11.90;64.00
5868;DHT22;2960;49.142;7.768;2023-04-24T11:15:00;11.90;63.20
5868;DHT22;2960;49.142;7.768;2023-04-24T11:17:29;11.80;62.80
5868;DHT22;2960;49.142;7.768;2023-04-24T11:20:02;11.90;62.70
5868;DHT22;2960;49.142;7.768;2023-04-24T11:22:33;11.90;62.60
5868;DHT22;2960;49.142;7.768;2023-04-24T11:25:02;11.90;62.50
5868;DHT22;2960;49.142;7.768;2023-04-24T11:27:31;11.90;62.40
5868;DHT22;2960;49.142;7.768;2023-04-24T11:30:01;11.90;62.20
5868;DHT22;2960;49.142;7.768;2023-04-24T11:32:33;11.90;62.20
5868;DHT22;2960;49.142;7.768;2023-04-24T11:35:05;11.90;62.20
5868;DHT22;2960;49.142;7.768;2023-04-24T11:37:35;11.90;62.00
5868;DHT22;2960;49.142;7.768;2023-04-24T11:40:04;12.00;62.10
5868;DHT22;2960;49.142;7.768;2023-04-24T11:42:36;12.00;62.00
5868;DHT22;2960;49.142;7.768;2023-04-24T11:45:08;12.00;61.80
5868;DHT22;2960;49.142;7.768;2023-04-24T11:47:36;12.00;61.50
5868;DHT22;2960;49.142;7.768;2023-04-24T11:50:08;12.00;61.60
5868;DHT22;2960;49.142;7.768;2023-04-24T11:52:37;12.00;61.60
5868;DHT22;2960;49.142;7.768;2023-04-24T11:55:07;12.00;61.30
5868;DHT22;2960;49.142;7.768;2023-04-24T11:57:54;12.10;61.40
5868;DHT22;2960;49.142;7.768;2023-04-24T12:00:24;12.20;61.30
5868;DHT22;2960;49.142;7.768;2023-04-24T12:03:04;12.20;60.90
5868;DHT22;2960;49.142;7.768;2023-04-24T12:05:34;12.20;60.80
5868;DHT22;2960;49.142;7.768;2023-04-24T12:08:01;12.20;60.70
5868;DHT22;2960;49.142;7.768;2023-04-24T12:10:30;12.30;60.80
5868;DHT22;2960;49.142;7.768;2023-04-24T12:12:59;12.30;60.50
5868;DHT22;2960;49.142;7.768;2023-04-24T12:15:27;12.30;59.90
5868;DHT22;2960;49.142;7.768;2023-04-24T12:17:56;12.30;59.70
5868;DHT22;2960;49.142;7.768;2023-04-24T12:20:26;12.30;59.80
5868;DHT22;2960;49.142;7.768;2023-04-24T12:22:56;12.30;59.90
5868;DHT22;2960;49.142;7.768;2023-04-24T12:25:25;12.40;59.90
5868;DHT22;2960;49.142;7.768;2023-04-24T12:27:54;12.40;59.80
5868;DHT22;2960;49.142;7.768;2023-04-24T12:30:27;12.50;59.70
5868;DHT22;2960;49.142;7.768;2023-04-24T12:32:57;12.50;60.30
5868;DHT22;2960;49.142;7.768;2023-04-24T12:35:27;12.60;59.60
5868;DHT22;2960;49.142;7.768;2023-04-24T12:38:05;12.70;60.10
5868;DHT22;2960;49.142;7.768;2023-04-24T12:40:32;12.70;59.40
5868;DHT22;2960;49.142;7.768;2023-04-24T12:43:00;12.80;59.20
5868;DHT22;2960;49.142;7.768;2023-04-24T12:45:27;12.80;58.90
5868;DHT22;2960;49.142;7.768;2023-04-24T12:47:54;12.90;58.90
5868;DHT22;2960;49.142;7.768;2023-04-24T12:50:22;12.90;58.90
5868;DHT22;2960;49.142;7.768;2023-04-24T12:52:50;12.90;58.70
5868;DHT22;2960;49.142;7.768;2023-04-24T12:55:18;12.90;58.70
5868;DHT22;2960;49.142;7.768;2023-04-24T12:57:46;12.90;58.40
5868;DHT22;2960;49.142;7.768;2023-04-24T13:00:13;12.90;58.40
5868;DHT22;2960;49.142;7.768;2023-04-24T13:02:41;13.00;58.50
5868;DHT22;2960;49.142;7.768;2023-04-24T13:05:08;13.00;58.30
5868;DHT22;2960;49.142;7.768;2023-04-24T13:07:37;13.00;58.30
5868;DHT22;2960;49.142;7.768;2023-04-24T13:10:04;13.00;58.30
5868;DHT22;2960;49.142;7.768;2023-04-24T13:12:34;13.10;58.30
5868;DHT22;2960;49.142;7.768;2023-04-24T13:15:02;13.20;58.30
5868;DHT22;2960;49.142;7.768;2023-04-24T13:17:30;13.20;58.30
5868;DHT22;2960;49.142;7.768;2023-04-24T13:19:57;13.30;58.40
5868;DHT22;2960;49.142;7.768;2023-04-24T13:22:24;13.40;58.20
5868;DHT22;2960;49.142;7.768;2023-04-24T13:24:51;13.50;57.90
5868;DHT22;2960;49.142;7.768;2023-04-24T13:27:18;13.60;57.50
5868;DHT22;2960;49.142;7.768;2023-04-24T13:29:46;13.60;57.40
5868;DHT22;2960;49.142;7.768;2023-04-24T13:32:14;13.70;57.20
5868;DHT22;2960;49.142;7.768;2023-04-24T13:34:41;13.70;57.10
5868;DHT22;2960;49.142;7.768;2023-04-24T13:37:08;13.70;57.10
5868;DHT22;2960;49.142;7.768;2023-04-24T13:39:35;13.80;56.90
5868;DHT22;2960;49.142;7.768;2023-04-24T13:42:06;13.80;56.90
5868;DHT22;2960;49.142;7.768;2023-04-24T13:44:33;13.90;57.40
5868;DHT22;2960;49.142;7.768;2023-04-24T13:47:02;13.90;56.60
5868;DHT22;2960;49.142;7.768;2023-04-24T13:49:29;14.00;56.50
5868;DHT22;2960;49.142;7.768;2023-04-24T13:51:56;14.00;56.20
5868;DHT22;2960;49.142;7.768;2023-04-24T13:54:23;14.10;56.00
5868;DHT22;2960;49.142;7.768;2023-04-24T13:56:51;14.00;56.30
5868;DHT22;2960;49.142;7.768;2023-04-24T13:59:19;14.10;55.90
5868;DHT22;2960;49.142;7.768;2023-04-24T14:01:47;14.00;55.80
5868;DHT22;2960;49.142;7.768;2023-04-24T14:04:16;14.00;55.90
5868;DHT22;2960;49.142;7.768;2023-04-24T14:06:43;14.00;56.10
5868;DHT22;2960;49.142;7.768;2023-04-24T14:09:11;14.00;56.00
5868;DHT22;2960;49.142;7.768;2023-04-24T14:11:39;14.00;55.60
5868;DHT22;2960;49.142;7.768;2023-04-24T14:14:06;14.00;55.40
5868;DHT22;2960;49.142;7.768;2023-04-24T14:16:33;14.00;55.50
5868;DHT22;2960;49.142;7.768;2023-04-24T14:19:00;14.00;55.70
5868;DHT22;2960;49.142;7.768;2023-04-24T14:21:29;14.00;55.60
5868;DHT22;2960;49.142;7.768;2023-04-24T14:23:56;14.10;55.50
5868;DHT22;2960;49.142;7.768;2023-04-24T14:26:26;14.10;55.50
5868;DHT22;2960;49.142;7.768;2023-04-24T14:28:53;14.20;55.30
5868;DHT22;2960;49.142;7.768;2023-04-24T14:31:20;14.20;55.20
5868;DHT22;2960;49.142;7.768;2023-04-24T14:33:47;14.20;55.20
5868;DHT22;2960;49.142;7.768;2023-04-24T14:36:15;14.20;55.70
5868;DHT22;2960;49.142;7.768;2023-04-24T14:38:43;14.20;55.20
5868;DHT22;2960;49.142;7.768;2023-04-24T14:41:11;14.20;55.10
5868;DHT22;2960;49.142;7.768;2023-04-24T14:43:38;14.10;55.10
5868;DHT22;2960;49.142;7.768;2023-04-24T14:46:06;14.10;54.80
5868;DHT22;2960;49.142;7.768;2023-04-24T14:48:33;14.00;54.70
5868;DHT22;2960;49.142;7.768;2023-04-24T14:51:00;14.00;54.90
5868;DHT22;2960;49.142;7.768;2023-04-24T14:53:27;14.00;55.00
5868;DHT22;2960;49.142;7.768;2023-04-24T14:55:55;13.90;55.10
5868;DHT22;2960;49.142;7.768;2023-04-24T14:58:23;13.90;55.30
5868;DHT22;2960;49.142;7.768;2023-04-24T15:00:50;13.90;55.30
5868;DHT22;2960;49.142;7.768;2023-04-24T15:03:20;13.90;55.40
5868;DHT22;2960;49.142;7.768;2023-04-24T15:05:48;13.90;55.50
5868;DHT22;2960;49.142;7.768;2023-04-24T15:08:16;14.00;55.70
5868;DHT22;2960;49.142;7.768;2023-04-24T15:10:43;14.00;55.80
5868;DHT22;2960;49.142;7.768;2023-04-24T15:13:12;14.00;56.00
5868;DHT22;2960;49.142;7.768;2023-04-24T15:15:39;14.00;56.10
5868;DHT22;2960;49.142;7.768;2023-04-24T15:18:07;14.00;56.00
5868;DHT22;2960;49.142;7.768;2023-04-24T15:20:37;14.00;56.10
5868;DHT22;2960;49.142;7.768;2023-04-24T15:23:05;14.00;56.20
5868;DHT22;2960;49.142;7.768;2023-04-24T15:25:32;14.10;56.30
5868;DHT22;2960;49.142;7.768;2023-04-24T15:27:59;14.10;56.40
5868;DHT22;2960;49.142;7.768;2023-04-24T15:30:29;14.10;56.40
5868;DHT22;2960;49.142;7.768;2023-04-24T15:32:56;14.20;56.50
5868;DHT22;2960;49.142;7.768;2023-04-24T15:35:23;14.20;56.50
5868;DHT22;2960;49.142;7.768;2023-04-24T15:37:50;14.30;56.50
5868;DHT22;2960;49.142;7.768;2023-04-24T15:40:17;14.30;56.50
5868;DHT22;2960;49.142;7.768;2023-04-24T15:42:46;14.20;56.40
5868;DHT22;2960;49.142;7.768;2023-04-24T15:45:13;14.20;56.50
5868;DHT22;2960;49.142;7.768;2023-04-24T15:47:41;14.20;56.50
5868;DHT22;2960;49.142;7.768;2023-04-24T15:50:11;14.20;56.60
5868;DHT22;2960;49.142;7.768;2023-04-24T15:52:39;14.10;56.70
5868;DHT22;2960;49.142;7.768;2023-04-24T15:55:06;14.10;56.80
5868;DHT22;2960;49.142;7.768;2023-04-24T15:57:34;14.00;57.00
5868;DHT22;2960;49.142;7.768;2023-04-24T16:00:02;13.90;57.20
5868;DHT22;2960;49.142;7.768;2023-04-24T16:02:31;13.80;57.70
5868;DHT22;2960;49.142;7.768;2023-04-24T16:05:00;13.70;58.00
5868;DHT22;2960;49.142;7.768;2023-04-24T16:07:27;13.50;58.30
5868;DHT22;2960;49.142;7.768;2023-04-24T16:09:54;13.50;58.60